Ingham, Australia
Current Conditions -  °F | °C
As of 12:00 AM on Tuesday 25 Nov 2014 (Local Time) from YBTL Reporting Station
Scattered Clouds Scattered Clouds  
Wind Chill: 79°   Ceiling: Unl
Heat Index: 82°   Visibility: 6mi
Dew Point: 73°   Wind: 10mph
Humidity: 83%   Direction: 70°ENE
Pressure: 29.91"   Gusts: NA
Location:  18.65°S, 146.15°E
Report Text: YBTL 241400Z AUTO 07009KT 9999 // SCT022 26/23 Q1013 RERA
Loading
Personal Weather Stations






























Interactive Weather Map New forecast layout! Learn more

10-Day Weather Forecast

Advertisements
Track Severe Weather on mobile